sensor_id;sensor_type;location;lat;lon;timestamp;pressure;altitude;pressure_sealevel;temperature;humidity
62849;BME280;48941;49.516;8.286;2023-12-20T00:01:19;100474.94;;;5.24;100.00
62849;BME280;48941;49.516;8.286;2023-12-20T00:03:47;100479.47;;;5.22;100.00
62849;BME280;48941;49.516;8.286;2023-12-20T00:06:14;100470.59;;;5.23;100.00
62849;BME280;48941;49.516;8.286;2023-12-20T00:08:42;100467.19;;;5.21;100.00
62849;BME280;48941;49.516;8.286;2023-12-20T00:11:11;100453.97;;;5.21;100.00
62849;BME280;48941;49.516;8.286;2023-12-20T00:13:39;100457.66;;;5.18;100.00
62849;BME280;48941;49.516;8.286;2023-12-20T00:16:09;100464.66;;;5.19;100.00
62849;BME280;48941;49.516;8.286;2023-12-20T00:18:37;100462.84;;;5.20;100.00
62849;BME280;48941;49.516;8.286;2023-12-20T00:21:05;100467.28;;;5.19;100.00
62849;BME280;48941;49.516;8.286;2023-12-20T00:23:33;100467.19;;;5.21;100.00
62849;BME280;48941;49.516;8.286;2023-12-20T00:26:00;100459.38;;;5.19;100.00
62849;BME280;48941;49.516;8.286;2023-12-20T00:28:28;100464.66;;;5.19;100.00
62849;BME280;48941;49.516;8.286;2023-12-20T00:30:56;100462.09;;;5.18;100.00
62849;BME280;48941;49.516;8.286;2023-12-20T00:33:25;100463.88;;;5.17;100.00
62849;BME280;48941;49.516;8.286;2023-12-20T00:35:53;100463.13;;;5.15;100.00
62849;BME280;48941;49.516;8.286;2023-12-20T00:38:21;100463.88;;;5.17;100.00
62849;BME280;48941;49.516;8.286;2023-12-20T00:40:49;100460.50;;;5.15;100.00
62849;BME280;48941;49.516;8.286;2023-12-20T00:43:17;100452.56;;;5.15;100.00
62849;BME280;48941;49.516;8.286;2023-12-20T00:45:45;100456.13;;;5.14;100.00
62849;BME280;48941;49.516;8.286;2023-12-20T00:48:13;100447.38;;;5.14;100.00
62849;BME280;48941;49.516;8.286;2023-12-20T00:50:44;100446.69;;;5.10;100.00
62849;BME280;48941;49.516;8.286;2023-12-20T00:53:12;100436.97;;;5.11;100.00
62849;BME280;48941;49.516;8.286;2023-12-20T00:55:40;100435.34;;;5.08;100.00
62849;BME280;48941;49.516;8.286;2023-12-20T00:58:08;100428.19;;;5.10;100.00
62849;BME280;48941;49.516;8.286;2023-12-20T01:00:36;100431.94;;;5.06;100.00
62849;BME280;48941;49.516;8.286;2023-12-20T01:03:05;100430.16;;;5.07;100.00
62849;BME280;48941;49.516;8.286;2023-12-20T01:05:33;100439.88;;;5.06;100.00
62849;BME280;48941;49.516;8.286;2023-12-20T01:08:03;100424.19;;;5.03;100.00
62849;BME280;48941;49.516;8.286;2023-12-20T01:10:31;100425.97;;;5.03;100.00
62849;BME280;48941;49.516;8.286;2023-12-20T01:12:59;100423.69;;;4.96;100.00
62849;BME280;48941;49.516;8.286;2023-12-20T01:15:26;100428.91;;;4.98;100.00
62849;BME280;48941;49.516;8.286;2023-12-20T01:17:54;100427.19;;;4.97;100.00
62849;BME280;48941;49.516;8.286;2023-12-20T01:20:23;100421.91;;;4.97;100.00
62849;BME280;48941;49.516;8.286;2023-12-20T01:22:51;100425.41;;;4.97;100.00
62849;BME280;48941;49.516;8.286;2023-12-20T01:25:21;100430.78;;;4.96;100.00
62849;BME280;48941;49.516;8.286;2023-12-20T01:27:49;100422.94;;;4.94;100.00
62849;BME280;48941;49.516;8.286;2023-12-20T01:30:17;100432.66;;;4.94;100.00
62849;BME280;48941;49.516;8.286;2023-12-20T01:32:45;100444.13;;;4.93;100.00
62849;BME280;48941;49.516;8.286;2023-12-20T01:35:13;100444.22;;;4.91;100.00
62849;BME280;48941;49.516;8.286;2023-12-20T01:37:41;100457.31;;;4.93;100.00
62849;BME280;48941;49.516;8.286;2023-12-20T01:40:10;100448.63;;;4.91;100.00
62849;BME280;48941;49.516;8.286;2023-12-20T01:42:39;100450.44;;;4.90;100.00
62849;BME280;48941;49.516;8.286;2023-12-20T01:45:08;100449.59;;;4.90;100.00
62849;BME280;48941;49.516;8.286;2023-12-20T01:47:37;100450.44;;;4.90;100.00
62849;BME280;48941;49.516;8.286;2023-12-20T01:50:06;100438.19;;;4.89;100.00
62849;BME280;48941;49.516;8.286;2023-12-20T01:52:35;100435.56;;;4.89;100.00
62849;BME280;48941;49.516;8.286;2023-12-20T01:55:04;100430.28;;;4.89;100.00
62849;BME280;48941;49.516;8.286;2023-12-20T01:57:41;100440.66;;;4.92;100.00
62849;BME280;48941;49.516;8.286;2023-12-20T02:00:11;100457.31;;;4.93;100.00
62849;BME280;48941;49.516;8.286;2023-12-20T02:02:41;100466.13;;;4.93;100.00
62849;BME280;48941;49.516;8.286;2023-12-20T02:05:09;100471.28;;;4.95;100.00
62849;BME280;48941;49.516;8.286;2023-12-20T02:07:37;100469.75;;;4.91;100.00
62849;BME280;48941;49.516;8.286;2023-12-20T02:10:05;100474.88;;;4.94;100.00
62849;BME280;48941;49.516;8.286;2023-12-20T02:12:33;100465.34;;;4.91;100.00
62849;BME280;48941;49.516;8.286;2023-12-20T02:15:04;100460.91;;;4.92;100.00
62849;BME280;48941;49.516;8.286;2023-12-20T02:17:32;100453.06;;;4.90;100.00
62849;BME280;48941;49.516;8.286;2023-12-20T02:20:01;100457.50;;;4.90;100.00
62849;BME280;48941;49.516;8.286;2023-12-20T02:22:30;100469.00;;;4.89;100.00
62849;BME280;48941;49.516;8.286;2023-12-20T02:24:58;100459.19;;;4.91;100.00
62849;BME280;48941;49.516;8.286;2023-12-20T02:27:27;100465.44;;;4.90;100.00
62849;BME280;48941;49.516;8.286;2023-12-20T02:29:55;100453.91;;;4.91;100.00
62849;BME280;48941;49.516;8.286;2023-12-20T02:32:24;100461.75;;;4.92;100.00
62849;BME280;48941;49.516;8.286;2023-12-20T02:34:53;100451.13;;;4.94;100.00
62849;BME280;48941;49.516;8.286;2023-12-20T02:37:21;100437.16;;;4.92;100.00
62849;BME280;48941;49.516;8.286;2023-12-20T02:39:50;100441.47;;;4.93;100.00
62849;BME280;48941;49.516;8.286;2023-12-20T02:42:18;100457.44;;;4.91;100.00
62849;BME280;48941;49.516;8.286;2023-12-20T02:44:46;100442.53;;;4.90;100.00
62849;BME280;48941;49.516;8.286;2023-12-20T02:47:14;100440.91;;;4.88;100.00
62849;BME280;48941;49.516;8.286;2023-12-20T02:49:42;100441.81;;;4.87;100.00
62849;BME280;48941;49.516;8.286;2023-12-20T02:52:10;100449.81;;;4.85;100.00
62849;BME280;48941;49.516;8.286;2023-12-20T02:54:38;100449.75;;;4.87;100.00
62849;BME280;48941;49.516;8.286;2023-12-20T02:57:08;100436.56;;;4.87;100.00
62849;BME280;48941;49.516;8.286;2023-12-20T02:59:35;100450.44;;;4.90;100.00
62849;BME280;48941;49.516;8.286;2023-12-20T03:02:06;100447.63;;;4.93;100.00
62849;BME280;48941;49.516;8.286;2023-12-20T03:04:34;100443.97;;;4.96;100.00
62849;BME280;48941;49.516;8.286;2023-12-20T03:07:02;100440.47;;;4.95;100.00
62849;BME280;48941;49.516;8.286;2023-12-20T03:09:29;100443.78;;;4.99;100.00
62849;BME280;48941;49.516;8.286;2023-12-20T03:12:18;100443.63;;;5.02;100.00
62849;BME280;48941;49.516;8.286;2023-12-20T03:14:47;100454.25;;;5.01;100.00
62849;BME280;48941;49.516;8.286;2023-12-20T03:17:15;100465.66;;;5.01;100.00
62849;BME280;48941;49.516;8.286;2023-12-20T03:19:43;100467.38;;;5.02;100.00
62849;BME280;48941;49.516;8.286;2023-12-20T03:22:11;100459.38;;;5.04;100.00
62849;BME280;48941;49.516;8.286;2023-12-20T03:24:39;100473.34;;;5.06;100.00
62849;BME280;48941;49.516;8.286;2023-12-20T03:27:06;100471.63;;;5.05;100.00
62849;BME280;48941;49.516;8.286;2023-12-20T03:29:36;100461.34;;;5.00;100.00
62849;BME280;48941;49.516;8.286;2023-12-20T03:32:04;100468.41;;;4.99;100.00
62849;BME280;48941;49.516;8.286;2023-12-20T03:34:31;100458.69;;;5.00;100.00
62849;BME280;48941;49.516;8.286;2023-12-20T03:36:59;100458.63;;;5.02;100.00
62849;BME280;48941;49.516;8.286;2023-12-20T03:39:27;100449.66;;;5.04;100.00
62849;BME280;48941;49.516;8.286;2023-12-20T03:41:55;100450.44;;;5.06;100.00
62849;BME280;48941;49.516;8.286;2023-12-20T03:44:23;100453.00;;;5.08;100.00
62849;BME280;48941;49.516;8.286;2023-12-20T03:46:52;100457.50;;;5.06;100.00
62849;BME280;48941;49.516;8.286;2023-12-20T03:49:20;100455.88;;;5.03;100.00
62849;BME280;48941;49.516;8.286;2023-12-20T03:51:48;100453.06;;;5.06;100.00
62849;BME280;48941;49.516;8.286;2023-12-20T03:54:16;100461.84;;;5.07;100.00
62849;BME280;48941;49.516;8.286;2023-12-20T03:56:43;100470.53;;;5.09;100.00
62849;BME280;48941;49.516;8.286;2023-12-20T03:59:11;100467.81;;;5.10;100.00
62849;BME280;48941;49.516;8.286;2023-12-20T04:01:43;100477.25;;;5.14;100.00
62849;BME280;48941;49.516;8.286;2023-12-20T04:04:12;100471.97;;;5.14;100.00
62849;BME280;48941;49.516;8.286;2023-12-20T04:06:41;100467.53;;;5.15;100.00
62849;BME280;48941;49.516;8.286;2023-12-20T04:09:09;100471.97;;;5.14;100.00
62849;BME280;48941;49.516;8.286;2023-12-20T04:11:37;100462.94;;;5.18;100.00
62849;BME280;48941;49.516;8.286;2023-12-20T04:14:05;100468.22;;;5.18;100.00
62849;BME280;48941;49.516;8.286;2023-12-20T04:16:34;100467.38;;;5.18;100.00
62849;BME280;48941;49.516;8.286;2023-12-20T04:19:02;100467.38;;;5.18;100.00
62849;BME280;48941;49.516;8.286;2023-12-20T04:21:31;100474.34;;;5.19;100.00
62849;BME280;48941;49.516;8.286;2023-12-20T04:23:59;100478.78;;;5.18;100.00
62849;BME280;48941;49.516;8.286;2023-12-20T04:26:27;100483.13;;;5.19;100.00
62849;BME280;48941;49.516;8.286;2023-12-20T04:28:55;100484.91;;;5.19;100.00
62849;BME280;48941;49.516;8.286;2023-12-20T04:31:23;100480.50;;;5.19;100.00
62849;BME280;48941;49.516;8.286;2023-12-20T04:33:51;100498.09;;;5.19;100.00
62849;BME280;48941;49.516;8.286;2023-12-20T04:36:19;100498.09;;;5.19;100.00
62849;BME280;48941;49.516;8.286;2023-12-20T04:38:48;100500.66;;;5.21;100.00
62849;BME280;48941;49.516;8.286;2023-12-20T04:41:16;100515.59;;;5.22;100.00
62849;BME280;48941;49.516;8.286;2023-12-20T04:43:45;100505.09;;;5.20;100.00
62849;BME280;48941;49.516;8.286;2023-12-20T04:46:13;100506.78;;;5.21;100.00
62849;BME280;48941;49.516;8.286;2023-12-20T04:48:41;100504.06;;;5.23;100.00
62849;BME280;48941;49.516;8.286;2023-12-20T04:51:09;100503.16;;;5.24;100.00
62849;BME280;48941;49.516;8.286;2023-12-20T04:53:37;100505.88;;;5.22;100.00
62849;BME280;48941;49.516;8.286;2023-12-20T04:56:07;100509.34;;;5.23;100.00
62849;BME280;48941;49.516;8.286;2023-12-20T04:58:35;100515.66;;;5.20;100.00
62849;BME280;48941;49.516;8.286;2023-12-20T05:01:03;100532.28;;;5.22;100.00
62849;BME280;48941;49.516;8.286;2023-12-20T05:03:33;100530.56;;;5.21;100.00
62849;BME280;48941;49.516;8.286;2023-12-20T05:06:01;100520.75;;;5.23;100.00
62849;BME280;48941;49.516;8.286;2023-12-20T05:08:29;100534.66;;;5.27;100.00
62849;BME280;48941;49.516;8.286;2023-12-20T05:10:57;100532.88;;;5.27;100.00
62849;BME280;48941;49.516;8.286;2023-12-20T05:13:27;100546.75;;;5.31;100.00
62849;BME280;48941;49.516;8.286;2023-12-20T05:16:07;100550.16;;;5.33;100.00
62849;BME280;48941;49.516;8.286;2023-12-20T05:18:36;100551.88;;;5.34;100.00
62849;BME280;48941;49.516;8.286;2023-12-20T05:21:04;100550.91;;;5.35;100.00
62849;BME280;48941;49.516;8.286;2023-12-20T05:23:32;100548.19;;;5.36;100.00
62849;BME280;48941;49.516;8.286;2023-12-20T05:26:01;100549.81;;;5.39;100.00
62849;BME280;48941;49.516;8.286;2023-12-20T05:28:33;100555.97;;;5.39;100.00
62849;BME280;48941;49.516;8.286;2023-12-20T05:31:01;100561.41;;;5.36;100.00
62849;BME280;48941;49.516;8.286;2023-12-20T05:33:29;100564.13;;;5.35;100.00
62849;BME280;48941;49.516;8.286;2023-12-20T05:35:56;100562.53;;;5.32;100.00
62849;BME280;48941;49.516;8.286;2023-12-20T05:38:24;100574.81;;;5.33;100.00
62849;BME280;48941;49.516;8.286;2023-12-20T05:40:52;100575.03;;;5.29;100.00
62849;BME280;48941;49.516;8.286;2023-12-20T05:43:20;100572.41;;;5.29;100.00
62849;BME280;48941;49.516;8.286;2023-12-20T05:45:49;100570.16;;;5.21;100.00
62849;BME280;48941;49.516;8.286;2023-12-20T05:48:17;100587.88;;;5.19;100.00
62849;BME280;48941;49.516;8.286;2023-12-20T05:50:45;100591.47;;;5.18;100.00
62849;BME280;48941;49.516;8.286;2023-12-20T05:53:13;100596.91;;;5.15;100.00
62849;BME280;48941;49.516;8.286;2023-12-20T05:55:40;100599.66;;;5.13;100.00
62849;BME280;48941;49.516;8.286;2023-12-20T05:58:08;100610.38;;;5.10;100.00
62849;BME280;48941;49.516;8.286;2023-12-20T06:00:36;100609.69;;;5.07;100.00
62849;BME280;48941;49.516;8.286;2023-12-20T06:03:06;100609.75;;;5.05;100.00
62849;BME280;48941;49.516;8.286;2023-12-20T06:05:34;100616.00;;;5.04;100.00
62849;BME280;48941;49.516;8.286;2023-12-20T06:08:01;100615.16;;;5.04;100.00
62849;BME280;48941;49.516;8.286;2023-12-20T06:10:29;100614.44;;;5.00;100.00
62849;BME280;48941;49.516;8.286;2023-12-20T06:12:57;100617.25;;;4.97;100.00
62849;BME280;48941;49.516;8.286;2023-12-20T06:15:27;100616.41;;;4.96;100.00
62849;BME280;48941;49.516;8.286;2023-12-20T06:17:55;100616.47;;;4.95;100.00
62849;BME280;48941;49.516;8.286;2023-12-20T06:20:24;100618.34;;;4.93;100.00
62849;BME280;48941;49.516;8.286;2023-12-20T06:22:52;100612.38;;;4.89;100.00
62849;BME280;48941;49.516;8.286;2023-12-20T06:25:20;100605.47;;;4.87;100.00
62849;BME280;48941;49.516;8.286;2023-12-20T06:27:48;100609.91;;;4.86;100.00
62849;BME280;48941;49.516;8.286;2023-12-20T06:30:16;100618.16;;;4.80;100.00
62849;BME280;48941;49.516;8.286;2023-12-20T06:32:44;100604.09;;;4.79;100.00
62849;BME280;48941;49.516;8.286;2023-12-20T06:35:13;100601.59;;;4.76;100.00
62849;BME280;48941;49.516;8.286;2023-12-20T06:37:43;100605.28;;;4.74;100.00
62849;BME280;48941;49.516;8.286;2023-12-20T06:40:11;100619.56;;;4.70;100.00
62849;BME280;48941;49.516;8.286;2023-12-20T06:42:44;100616.16;;;4.68;100.00
62849;BME280;48941;49.516;8.286;2023-12-20T06:45:27;100628.63;;;4.64;100.00
62849;BME280;48941;49.516;8.286;2023-12-20T06:47:55;100628.72;;;4.63;100.00
62849;BME280;48941;49.516;8.286;2023-12-20T06:50:23;100629.66;;;4.62;100.00
62849;BME280;48941;49.516;8.286;2023-12-20T06:52:52;100617.56;;;4.57;100.00
62849;BME280;48941;49.516;8.286;2023-12-20T06:55:20;100616.78;;;4.55;100.00
62849;BME280;48941;49.516;8.286;2023-12-20T06:57:47;100610.63;;;4.55;100.00
62849;BME280;48941;49.516;8.286;2023-12-20T07:00:16;100614.38;;;4.51;100.00
62849;BME280;48941;49.516;8.286;2023-12-20T07:02:46;100619.81;;;4.48;100.00
62849;BME280;48941;49.516;8.286;2023-12-20T07:05:16;100623.38;;;4.47;100.00
62849;BME280;48941;49.516;8.286;2023-12-20T07:07:46;100609.34;;;4.46;100.00
62849;BME280;48941;49.516;8.286;2023-12-20T07:10:16;100627.34;;;4.38;100.00
62849;BME280;48941;49.516;8.286;2023-12-20T07:12:44;100630.06;;;4.36;100.00
62849;BME280;48941;49.516;8.286;2023-12-20T07:15:12;100619.66;;;4.33;100.00
62849;BME280;48941;49.516;8.286;2023-12-20T07:17:40;100629.34;;;4.33;100.00
62849;BME280;48941;49.516;8.286;2023-12-20T07:20:10;100636.53;;;4.29;100.00
62849;BME280;48941;49.516;8.286;2023-12-20T07:22:38;100639.28;;;4.28;100.00
62849;BME280;48941;49.516;8.286;2023-12-20T07:25:07;100637.56;;;4.27;100.00
62849;BME280;48941;49.516;8.286;2023-12-20T07:27:36;100633.91;;;4.29;100.00
62849;BME280;48941;49.516;8.286;2023-12-20T07:30:07;100629.59;;;4.28;100.00
62849;BME280;48941;49.516;8.286;2023-12-20T07:32:35;100633.25;;;4.26;100.00
62849;BME280;48941;49.516;8.286;2023-12-20T07:35:03;100630.59;;;4.26;100.00
62849;BME280;48941;49.516;8.286;2023-12-20T07:37:32;100645.66;;;4.24;100.00
62849;BME280;48941;49.516;8.286;2023-12-20T07:40:00;100653.56;;;4.24;100.00
62849;BME280;48941;49.516;8.286;2023-12-20T07:42:27;100654.34;;;4.26;100.00
62849;BME280;48941;49.516;8.286;2023-12-20T07:44:57;100655.47;;;4.20;100.00
62849;BME280;48941;49.516;8.286;2023-12-20T07:47:24;100663.22;;;4.23;100.00
62849;BME280;48941;49.516;8.286;2023-12-20T07:49:52;100672.78;;;4.26;100.00
62849;BME280;48941;49.516;8.286;2023-12-20T07:52:20;100676.28;;;4.26;100.00
62849;BME280;48941;49.516;8.286;2023-12-20T07:54:49;100683.34;;;4.26;100.00
62849;BME280;48941;49.516;8.286;2023-12-20T07:57:17;100683.16;;;4.29;100.00
62849;BME280;48941;49.516;8.286;2023-12-20T07:59:45;100686.03;;;4.24;100.00
62849;BME280;48941;49.516;8.286;2023-12-20T08:02:14;100692.22;;;4.23;100.00
62849;BME280;48941;49.516;8.286;2023-12-20T08:04:42;100685.75;;;4.30;100.00
62849;BME280;48941;49.516;8.286;2023-12-20T08:07:10;100684.59;;;4.36;100.00
62849;BME280;48941;49.516;8.286;2023-12-20T08:09:38;100686.22;;;4.38;100.00
62849;BME280;48941;49.516;8.286;2023-12-20T08:12:06;100682.72;;;4.38;100.00
62849;BME280;48941;49.516;8.286;2023-12-20T08:14:36;100690.41;;;4.43;100.00
62849;BME280;48941;49.516;8.286;2023-12-20T08:17:03;100697.28;;;4.45;100.00
62849;BME280;48941;49.516;8.286;2023-12-20T08:19:32;100699.66;;;4.51;100.00
62849;BME280;48941;49.516;8.286;2023-12-20T08:22:01;100705.59;;;4.55;100.00
62849;BME280;48941;49.516;8.286;2023-12-20T08:24:29;100701.03;;;4.58;100.00
62849;BME280;48941;49.516;8.286;2023-12-20T08:26:57;100698.16;;;4.63;100.00
62849;BME280;48941;49.516;8.286;2023-12-20T08:29:25;100693.66;;;4.65;100.00
62849;BME280;48941;49.516;8.286;2023-12-20T08:31:53;100698.88;;;4.67;100.00
62849;BME280;48941;49.516;8.286;2023-12-20T08:34:22;100710.97;;;4.71;100.00
62849;BME280;48941;49.516;8.286;2023-12-20T08:36:52;100706.41;;;4.74;100.00
62849;BME280;48941;49.516;8.286;2023-12-20T08:39:19;100708.78;;;4.79;100.00
62849;BME280;48941;49.516;8.286;2023-12-20T08:41:47;100698.16;;;4.81;100.00
62849;BME280;48941;49.516;8.286;2023-12-20T08:44:15;100698.94;;;4.83;100.00
62849;BME280;48941;49.516;8.286;2023-12-20T08:46:43;100705.16;;;4.82;100.00
62849;BME280;48941;49.516;8.286;2023-12-20T08:49:11;100706.84;;;4.83;100.00
62849;BME280;48941;49.516;8.286;2023-12-20T08:51:39;100712.75;;;4.88;100.00
62849;BME280;48941;49.516;8.286;2023-12-20T08:54:09;100699.31;;;4.92;100.00
62849;BME280;48941;49.516;8.286;2023-12-20T08:56:37;100707.75;;;4.99;100.00
62849;BME280;48941;49.516;8.286;2023-12-20T08:59:05;100698.75;;;5.03;100.00
62849;BME280;48941;49.516;8.286;2023-12-20T09:01:33;100706.44;;;5.08;100.00
62849;BME280;48941;49.516;8.286;2023-12-20T09:04:01;100709.78;;;5.11;100.00
62849;BME280;48941;49.516;8.286;2023-12-20T09:06:29;100707.75;;;5.16;100.00
62849;BME280;48941;49.516;8.286;2023-12-20T09:08:57;100711.16;;;5.18;100.00
62849;BME280;48941;49.516;8.286;2023-12-20T09:11:26;100714.44;;;5.24;100.00
62849;BME280;48941;49.516;8.286;2023-12-20T09:13:54;100714.25;;;5.27;100.00
62849;BME280;48941;49.516;8.286;2023-12-20T09:16:22;100715.72;;;5.32;100.00
62849;BME280;48941;49.516;8.286;2023-12-20T09:18:50;100711.06;;;5.37;100.00
62849;BME280;48941;49.516;8.286;2023-12-20T09:21:18;100713.19;;;5.47;100.00
62849;BME280;48941;49.516;8.286;2023-12-20T09:23:46;100713.81;;;5.52;100.00
62849;BME280;48941;49.516;8.286;2023-12-20T09:26:14;100709.22;;;5.55;100.00
62849;BME280;48941;49.516;8.286;2023-12-20T09:28:43;100722.50;;;5.54;100.00
62849;BME280;48941;49.516;8.286;2023-12-20T09:31:14;100723.34;;;5.54;100.00
62849;BME280;48941;49.516;8.286;2023-12-20T09:33:42;100724.81;;;5.60;100.00
62849;BME280;48941;49.516;8.286;2023-12-20T09:36:10;100724.13;;;5.72;100.00
62849;BME280;48941;49.516;8.286;2023-12-20T09:38:38;100728.16;;;5.79;100.00
62849;BME280;48941;49.516;8.286;2023-12-20T09:41:05;100730.69;;;5.81;100.00
62849;BME280;48941;49.516;8.286;2023-12-20T09:43:35;100722.75;;;5.81;100.00
62849;BME280;48941;49.516;8.286;2023-12-20T09:46:06;100723.66;;;5.82;100.00
62849;BME280;48941;49.516;8.286;2023-12-20T09:48:36;100719.13;;;5.84;100.00
62849;BME280;48941;49.516;8.286;2023-12-20T09:51:04;100712.81;;;5.86;100.00
62849;BME280;48941;49.516;8.286;2023-12-20T09:53:33;100711.88;;;5.87;100.00
62849;BME280;48941;49.516;8.286;2023-12-20T09:56:05;100711.69;;;5.90;100.00
62849;BME280;48941;49.516;8.286;2023-12-20T09:58:36;100710.66;;;5.93;100.00
62849;BME280;48941;49.516;8.286;2023-12-20T10:01:06;100719.25;;;5.98;100.00
62849;BME280;48941;49.516;8.286;2023-12-20T10:03:34;100701.34;;;6.03;100.00
62849;BME280;48941;49.516;8.286;2023-12-20T10:06:03;100708.16;;;6.07;100.00
62849;BME280;48941;49.516;8.286;2023-12-20T10:08:31;100701.91;;;6.08;100.00
62849;BME280;48941;49.516;8.286;2023-12-20T10:11:00;100696.47;;;6.11;100.00
62849;BME280;48941;49.516;8.286;2023-12-20T10:13:29;100706.00;;;6.14;100.00
62849;BME280;48941;49.516;8.286;2023-12-20T10:15:57;100697.03;;;6.16;100.00
62849;BME280;48941;49.516;8.286;2023-12-20T10:18:29;100697.03;;;6.16;100.00
62849;BME280;48941;49.516;8.286;2023-12-20T10:21:05;100693.47;;;6.17;100.00
62849;BME280;48941;49.516;8.286;2023-12-20T10:23:34;100703.38;;;6.14;100.00
62849;BME280;48941;49.516;8.286;2023-12-20T10:26:02;100703.28;;;6.15;100.00
62849;BME280;48941;49.516;8.286;2023-12-20T10:28:33;100703.28;;;6.15;100.00
62849;BME280;48941;49.516;8.286;2023-12-20T10:31:02;100698.75;;;6.17;100.00
62849;BME280;48941;49.516;8.286;2023-12-20T10:33:31;100692.28;;;6.23;100.00
62849;BME280;48941;49.516;8.286;2023-12-20T10:36:00;100694.91;;;6.23;100.00
62849;BME280;48941;49.516;8.286;2023-12-20T10:38:29;100687.63;;;6.27;100.00
62849;BME280;48941;49.516;8.286;2023-12-20T10:40:58;100690.13;;;6.30;100.00
62849;BME280;48941;49.516;8.286;2023-12-20T10:43:28;100689.84;;;6.34;100.00
62849;BME280;48941;49.516;8.286;2023-12-20T10:45:57;100687.13;;;6.36;100.00
62849;BME280;48941;49.516;8.286;2023-12-20T10:48:26;100690.53;;;6.38;100.00
62849;BME280;48941;49.516;8.286;2023-12-20T10:50:58;100699.16;;;6.42;100.00
62849;BME280;48941;49.516;8.286;2023-12-20T10:53:27;100687.59;;;6.43;100.00
62849;BME280;48941;49.516;8.286;2023-12-20T10:55:55;100683.94;;;6.45;100.00
62849;BME280;48941;49.516;8.286;2023-12-20T10:58:24;100680.63;;;6.42;100.00
62849;BME280;48941;49.516;8.286;2023-12-20T11:00:59;100667.19;;;6.45;100.00
62849;BME280;48941;49.516;8.286;2023-12-20T11:03:32;100670.59;;;6.47;100.00
62849;BME280;48941;49.516;8.286;2023-12-20T11:06:03;100674.13;;;6.47;100.00
62849;BME280;48941;49.516;8.286;2023-12-20T11:08:36;100661.75;;;6.48;100.00
62849;BME280;48941;49.516;8.286;2023-12-20T11:11:12;100663.53;;;6.47;100.00
62849;BME280;48941;49.516;8.286;2023-12-20T11:13:48;100658.13;;;6.49;100.00
62849;BME280;48941;49.516;8.286;2023-12-20T11:16:21;100658.06;;;6.50;100.00
62849;BME280;48941;49.516;8.286;2023-12-20T11:18:53;100653.59;;;6.51;100.00
62849;BME280;48941;49.516;8.286;2023-12-20T11:21:22;100655.25;;;6.53;100.00
62849;BME280;48941;49.516;8.286;2023-12-20T11:23:52;100650.88;;;6.52;100.00
62849;BME280;48941;49.516;8.286;2023-12-20T11:26:23;100648.13;;;6.54;100.00
62849;BME280;48941;49.516;8.286;2023-12-20T11:28:54;100637.47;;;6.55;100.00
62849;BME280;48941;49.516;8.286;2023-12-20T11:31:22;100634.75;;;6.57;100.00
62849;BME280;48941;49.516;8.286;2023-12-20T11:33:50;100641.88;;;6.55;100.00
62849;BME280;48941;49.516;8.286;2023-12-20T11:36:18;100640.69;;;6.61;100.00
62849;BME280;48941;49.516;8.286;2023-12-20T11:38:56;100641.34;;;6.64;100.00
62849;BME280;48941;49.516;8.286;2023-12-20T11:41:25;100651.09;;;6.64;100.00
62849;BME280;48941;49.516;8.286;2023-12-20T11:43:53;100640.59;;;6.62;100.00
62849;BME280;48941;49.516;8.286;2023-12-20T11:46:22;100645.13;;;6.60;100.00
62849;BME280;48941;49.516;8.286;2023-12-20T11:48:50;100643.25;;;6.62;100.00
62849;BME280;48941;49.516;8.286;2023-12-20T11:51:18;100643.16;;;6.64;100.00
62849;BME280;48941;49.516;8.286;2023-12-20T11:53:51;100646.72;;;6.63;100.00
62849;BME280;48941;49.516;8.286;2023-12-20T11:56:20;100644.09;;;6.63;100.00
62849;BME280;48941;49.516;8.286;2023-12-20T11:58:48;100647.84;;;6.58;100.00
62849;BME280;48941;49.516;8.286;2023-12-20T12:01:19;100642.56;;;6.58;100.00
62849;BME280;48941;49.516;8.286;2023-12-20T12:03:48;100647.84;;;6.58;100.00
62849;BME280;48941;49.516;8.286;2023-12-20T12:06:16;100651.47;;;6.57;100.00
62849;BME280;48941;49.516;8.286;2023-12-20T12:08:44;100641.03;;;6.54;100.00
62849;BME280;48941;49.516;8.286;2023-12-20T12:11:12;100639.06;;;6.58;100.00
62849;BME280;48941;49.516;8.286;2023-12-20T12:13:41;100634.75;;;6.57;100.00
62849;BME280;48941;49.516;8.286;2023-12-20T12:16:10;100630.22;;;6.59;100.00
62849;BME280;48941;49.516;8.286;2023-12-20T12:18:38;100626.69;;;6.58;100.00
62849;BME280;48941;49.516;8.286;2023-12-20T12:21:08;100630.22;;;6.59;100.00
62849;BME280;48941;49.516;8.286;2023-12-20T12:23:44;100628.41;;;6.60;100.00
62849;BME280;48941;49.516;8.286;2023-12-20T12:26:12;100629.34;;;6.58;100.00
62849;BME280;48941;49.516;8.286;2023-12-20T12:28:42;100639.06;;;6.58;100.00
62849;BME280;48941;49.516;8.286;2023-12-20T12:31:13;100628.56;;;6.56;100.00
62849;BME280;48941;49.516;8.286;2023-12-20T12:33:42;100631.22;;;6.56;100.00
62849;BME280;48941;49.516;8.286;2023-12-20T12:36:12;100638.41;;;6.54;100.00
62849;BME280;48941;49.516;8.286;2023-12-20T12:38:42;100627.91;;;6.53;100.00
62849;BME280;48941;49.516;8.286;2023-12-20T12:41:12;100636.88;;;6.50;100.00
62849;BME280;48941;49.516;8.286;2023-12-20T12:43:43;100636.13;;;6.48;100.00
62849;BME280;48941;49.516;8.286;2023-12-20T12:46:11;100641.41;;;6.48;100.00
62849;BME280;48941;49.516;8.286;2023-12-20T12:48:39;100634.50;;;6.46;100.00
62849;BME280;48941;49.516;8.286;2023-12-20T12:51:10;100631.88;;;6.46;100.00
62849;BME280;48941;49.516;8.286;2023-12-20T12:53:40;100631.88;;;6.46;100.00
62849;BME280;48941;49.516;8.286;2023-12-20T12:56:08;100624.84;;;6.45;100.00
62849;BME280;48941;49.516;8.286;2023-12-20T12:58:36;100622.22;;;6.45;100.00